This is the latest recevied weather packets stored in our database for station/object MHTG. If no packets are shown the sender has not sent any weather packets the latest 1 day(s).
| Time | Temp. | Humidity | Pressure | Rain* | Wind** | Luminosity | Snow |
|---|---|---|---|---|---|---|---|
| 1778094224 | 31.67° C | 35% | 1016.9 hPa | - | - | - | - |
| 1778090747 | 30.56° C | 40% | 1017.9 hPa | - | - | - | - |
| 1778090022 | 31.67° C | 40% | 1017.9 hPa | - | - | - | - |
| 1778089423 | 31.67° C | 40% | 1017.9 hPa | - | - | - | - |
| 1778087025 | 28.89° C | 45% | 1019 hPa | - | - | - | - |
| 1778084025 | 27.78° C | 51% | 1019 hPa | - | - | - | - |
| 1778082223 | 25.56° C | 57% | 1019 hPa | - | - | - | - |
| 1778081624 | 25.56° C | 57% | 1019 hPa | - | - | - | - |
| 1778081025 | 25.56° C | 57% | 1019 hPa | - | - | - | - |
| 1778080424 | 25.56° C | 57% | 1019 hPa | - | - | - | - |
| 1778078024 | 22.78° C | 64% | 1019 hPa | - | - | - | - |
| 1778077420 | 22.78° C | 64% | 1019 hPa | - | - | - | - |
| 1778075622 | 21.67° C | 68% | 1019 hPa | - | - | - | - |
| 1778075021 | 21.67° C | 68% | 1019 hPa | - | - | - | - |
| 1778072020 | 18.89° C | 82% | 1019 hPa | - | - | - | - |
| 1778070821 | 16.67° C | 88% | 1019 hPa | - | - | - | - |
| 1778069622 | 16.67° C | 88% | 1019 hPa | - | - | - | - |
| 1778067822 | 16.67° C | 93% | 1019 hPa | - | - | - | - |
| 1778063622 | 17.78° C | 88% | 1018 hPa | - | - | - | - |
| 1778061225 | 18.89° C | 82% | 1017.9 hPa | - | - | - | - |
| 1778060747 | 18.89° C | 82% | 1017.9 hPa | - | - | - | - |
| 1778059422 | 18.89° C | 82% | 1017.9 hPa | - | - | - | - |
| 1778058225 | 18.89° C | 82% | 1017.9 hPa | - | - | - | - |
| 1778057625 | 20° C | 77% | 1017.9 hPa | - | - | - | - |
| 1778055220 | 20° C | 77% | 1017.9 hPa | - | - | - | - |
* Rain since midnight (hover to see other rain measurements)
** Current wind speed in m/s (hover to see current wind gust speed)